Kensington, New Hampshire
Current Conditions -  °F | °C
As of 12:58 AM on Thursday 18 Dec 2014 (Local Time) from KPSM Reporting Station
Light Rain Light Rain  
Wind Chill: 34°   Ceiling: 4600
Heat Index: 40°   Visibility: 10mi
Dew Point: 35°   Wind: 9mph
Humidity: 81%   Direction: 280°W
Pressure: 29.66"   Gusts: NA
Location:  42.9832°N, 70.9915°W
Report Text: KPSM 180558Z 28008KT 10SM -RA FEW008 SCT029 OVC046 04/01 A2966 RMK AO2A SLP048 P0000 60000 T00440014 10056 20044 55003
Loading
Personal Weather Stations






























Interactive Weather Map New forecast layout! Learn more

10-Day Weather Forecast

Advertisements
Track Severe Weather on mobile